Time;durP1;ratioP1;P1;durP2;ratioP2;P2;SDS_P1;SDS_P2;PMS_P1;PMS_P2;Temp;Humidity;BMP_temperature;BMP_pressure;BME280_temperature;BME280_humidity;BME280_pressure;Samples;Min_cycle;Max_cycle;Signal;HPM_P1;HPM_P2
2022/11/17 00:00:00;;;;;;;22.27;16.65;;;8.50;99.90;;;;;;4891199;29;20037;-87
2022/11/17 00:02:25;;;;;;;21.70;16.48;;;8.50;99.90;;;;;;4898236;29;20625;-85
2022/11/17 00:04:51;;;;;;;20.40;15.77;;;8.50;99.90;;;;;;4876175;29;20176;-86
2022/11/17 00:07:16;;;;;;;21.70;16.73;;;8.40;99.90;;;;;;4892258;29;20096;-85
2022/11/17 00:09:42;;;;;;;24.33;17.98;;;8.50;99.90;;;;;;4896176;29;20044;-86
2022/11/17 00:14:51;;;;;;;19.90;15.07;;;8.90;99.90;;;;;;4896934;29;20052;-90
2022/11/17 00:17:17;;;;;;;24.35;16.70;;;8.50;99.90;;;;;;4881836;29;20044;-85
2022/11/17 00:22:30;;;;;;;21.02;14.88;;;8.50;99.90;;;;;;4898838;29;20051;-86
2022/11/17 00:24:56;;;;;;;23.50;16.85;;;8.50;99.90;;;;;;4897016;29;20044;-85
2022/11/17 00:27:22;;;;;;;20.90;15.88;;;8.50;99.90;;;;;;4891745;29;20049;-85
2022/11/17 00:29:47;;;;;;;19.00;15.82;;;9.50;99.90;;;;;;4880472;29;20036;-86
2022/11/17 00:34:59;;;;;;;22.75;16.17;;;8.90;99.90;;;;;;4897287;29;20044;-85
2022/11/17 00:37:26;;;;;;;19.55;15.07;;;8.60;99.90;;;;;;4896296;29;20107;-86
2022/11/17 00:39:51;;;;;;;22.63;15.70;;;8.60;99.90;;;;;;4882084;29;20111;-85
2022/11/17 00:42:17;;;;;;;18.55;14.48;;;8.60;99.90;;;;;;4879981;29;20562;-84
2022/11/17 00:44:43;;;;;;;22.02;15.38;;;8.60;99.90;;;;;;4880093;29;20044;-85
2022/11/17 00:47:08;;;;;;;19.35;12.75;;;8.60;99.90;;;;;;4880646;29;20176;-85
2022/11/17 00:49:35;;;;;;;20.35;14.60;;;9.00;99.90;;;;;;4884734;29;20161;-85
2022/11/17 00:52:01;;;;;;;19.38;13.18;;;9.30;99.90;;;;;;4892760;29;20433;-86
2022/11/17 00:54:27;;;;;;;19.25;13.40;;;8.60;99.90;;;;;;4893843;29;20040;-87
2022/11/17 00:56:53;;;;;;;15.63;12.85;;;8.60;99.90;;;;;;4877864;29;20515;-86
2022/11/17 00:59:19;;;;;;;15.32;12.48;;;8.60;99.90;;;;;;4879844;29;20040;-86
2022/11/17 01:01:46;;;;;;;17.95;13.85;;;8.60;99.90;;;;;;4889210;29;20043;-85
2022/11/17 01:04:13;;;;;;;16.30;12.43;;;8.60;99.90;;;;;;4895658;29;20198;-86
2022/11/17 01:06:44;;;;;;;14.13;12.20;;;8.80;99.90;;;;;;4888100;29;20341;-85
2022/11/17 01:09:21;;;;;;;15.95;12.30;;;8.60;99.90;;;;;;4895446;29;20037;-85
2022/11/17 01:11:49;;;;;;;18.85;13.52;;;8.60;99.90;;;;;;4913230;29;20071;-85
2022/11/17 01:14:21;;;;;;;17.58;12.38;;;8.60;99.90;;;;;;4876362;29;20065;-85
2022/11/17 01:16:47;;;;;;;12.68;11.02;;;8.80;99.90;;;;;;4911429;29;20403;-87
2022/11/17 01:19:16;;;;;;;13.35;11.85;;;8.60;99.90;;;;;;4894840;29;20040;-84
2022/11/17 01:21:42;;;;;;;12.32;11.10;;;8.60;99.90;;;;;;4871468;29;20072;-85
2022/11/17 01:24:10;;;;;;;15.07;11.13;;;8.60;99.90;;;;;;4893797;29;20530;-85
2022/11/17 01:26:37;;;;;;;13.02;11.55;;;8.60;99.90;;;;;;4882613;29;20071;-85
2022/11/17 01:29:04;;;;;;;13.55;11.15;;;8.70;99.90;;;;;;4895063;29;20472;-85
2022/11/17 01:31:32;;;;;;;12.88;11.55;;;8.70;99.90;;;;;;4894767;29;20092;-85
2022/11/17 01:33:58;;;;;;;13.80;9.93;;;8.70;99.90;;;;;;4907959;29;20037;-85
2022/11/17 01:37:17;;;;;;;13.05;11.13;;;8.60;99.90;;;;;;4890966;29;20096;-85
2022/11/17 01:39:16;;;;;;;13.45;11.15;;;8.70;99.90;;;;;;4893851;29;20048;-84
2022/11/17 01:41:42;;;;;;;12.65;11.15;;;8.70;99.90;;;;;;4898457;29;20036;-85
2022/11/17 01:44:53;;;;;;;14.63;10.90;;;8.60;99.90;;;;;;4876539;29;20073;-86
2022/11/17 01:47:34;;;;;;;14.40;10.10;;;8.60;99.90;;;;;;4908524;29;20088;-84
2022/11/17 01:50:06;;;;;;;12.40;10.73;;;8.60;99.90;;;;;;4911053;29;20060;-86
2022/11/17 01:52:33;;;;;;;14.50;10.07;;;8.70;99.90;;;;;;4892104;29;20105;-88
2022/11/17 01:55:00;;;;;;;13.60;10.77;;;8.60;99.90;;;;;;4878892;29;20036;-85
2022/11/17 01:57:33;;;;;;;15.52;10.40;;;8.70;99.90;;;;;;4897814;29;20052;-85
2022/11/17 02:00:09;;;;;;;13.43;9.95;;;8.70;99.90;;;;;;4896543;29;20131;-85
2022/11/17 02:02:36;;;;;;;14.32;10.23;;;8.70;99.90;;;;;;4908627;29;20054;-85
2022/11/17 02:05:21;;;;;;;10.73;9.73;;;8.70;99.90;;;;;;4876394;29;20041;-87
2022/11/17 02:07:49;;;;;;;13.48;9.40;;;8.70;99.90;;;;;;4893476;29;20067;-86
2022/11/17 02:10:15;;;;;;;13.45;10.43;;;8.60;99.90;;;;;;4897503;29;20119;-85
2022/11/17 02:12:42;;;;;;;12.23;11.02;;;8.70;99.90;;;;;;4898143;29;20107;-87
2022/11/17 02:15:08;;;;;;;11.70;9.50;;;8.80;99.90;;;;;;4878631;29;20088;-86
2022/11/17 02:17:40;;;;;;;16.48;10.88;;;8.60;99.90;;;;;;4890271;29;20041;-85
2022/11/17 02:20:29;;;;;;;13.07;10.27;;;8.60;99.90;;;;;;4895127;29;20041;-86
2022/11/17 02:23:14;;;;;;;11.65;10.43;;;8.60;99.90;;;;;;4909938;29;20047;-85
2022/11/17 02:25:54;;;;;;;13.10;9.75;;;8.70;99.90;;;;;;4891774;29;20040;-86
2022/11/17 02:28:33;;;;;;;12.35;9.70;;;8.60;99.90;;;;;;4881881;29;20051;-86
2022/11/17 02:31:11;;;;;;;16.42;11.45;;;8.60;99.90;;;;;;4891194;29;20391;-85
2022/11/17 02:34:08;;;;;;;11.77;9.73;;;8.50;99.90;;;;;;4878524;29;20045;-85
2022/11/17 02:36:43;;;;;;;15.18;11.68;;;8.50;99.90;;;;;;4877284;29;20052;-86
2022/11/17 02:39:22;;;;;;;13.95;12.18;;;8.50;99.90;;;;;;4892192;29;20938;-86
2022/11/17 02:42:08;;;;;;;15.23;11.98;;;8.40;99.90;;;;;;4894192;29;20041;-85
2022/11/17 02:44:48;;;;;;;13.23;10.98;;;8.50;99.90;;;;;;4874241;29;20048;-87
2022/11/17 02:47:22;;;;;;;13.52;10.75;;;8.50;99.90;;;;;;4878486;29;20096;-86
2022/11/17 02:50:02;;;;;;;15.20;13.48;;;8.40;99.90;;;;;;4884747;29;20036;-87
2022/11/17 02:52:29;;;;;;;13.15;11.48;;;8.50;99.90;;;;;;4884376;29;20194;-86
2022/11/17 02:55:03;;;;;;;17.48;12.27;;;8.50;99.90;;;;;;4896288;29;20028;-86
2022/11/17 02:57:37;;;;;;;13.82;11.23;;;8.30;99.90;;;;;;4880378;29;20045;-86
2022/11/17 03:00:11;;;;;;;17.83;12.60;;;8.40;99.90;;;;;;4882404;29;20039;-87
2022/11/17 03:02:54;;;;;;;17.27;12.77;;;8.30;99.90;;;;;;4895301;29;20688;-86
2022/11/17 03:06:07;;;;;;;14.75;11.20;;;8.30;99.90;;;;;;4881656;29;20130;-86
2022/11/17 03:08:58;;;;;;;17.73;13.32;;;8.30;99.90;;;;;;4897803;29;20049;-87
2022/11/17 03:11:40;;;;;;;16.45;12.70;;;8.20;99.90;;;;;;4882521;29;20047;-86
2022/11/17 03:14:17;;;;;;;16.95;14.40;;;8.30;99.90;;;;;;4897214;29;20040;-86
2022/11/17 03:17:21;;;;;;;14.52;13.02;;;8.20;99.90;;;;;;4882572;29;20132;-86
2022/11/17 03:20:09;;;;;;;17.90;12.38;;;8.20;99.90;;;;;;4913683;29;20053;-86
2022/11/17 03:22:45;;;;;;;14.93;12.27;;;8.30;99.90;;;;;;4879266;29;20083;-86
2022/11/17 03:25:14;;;;;;;13.63;12.20;;;8.20;99.90;;;;;;4898796;29;20091;-86
2022/11/17 03:27:46;;;;;;;14.80;11.88;;;9.20;99.90;;;;;;4895841;29;20407;-86
2022/11/17 03:30:12;;;;;;;14.85;12.77;;;8.20;99.90;;;;;;4883008;29;20068;-86
2022/11/17 03:32:41;;;;;;;12.25;10.98;;;8.20;99.90;;;;;;4891480;29;20115;-85
2022/11/17 03:35:13;;;;;;;14.30;9.75;;;8.30;99.90;;;;;;4882169;29;20099;-85
2022/11/17 03:37:44;;;;;;;13.15;11.77;;;8.20;99.90;;;;;;4911265;29;20047;-86
2022/11/17 03:40:17;;;;;;;15.60;12.25;;;8.80;99.90;;;;;;4884087;29;20131;-86
2022/11/17 03:42:52;;;;;;;16.45;12.32;;;8.30;99.90;;;;;;4882564;29;20079;-88
2022/11/17 03:45:30;;;;;;;14.25;11.00;;;8.20;99.90;;;;;;4880504;29;20131;-85
2022/11/17 03:48:20;;;;;;;11.35;10.23;;;8.20;99.90;;;;;;4883667;29;20040;-86
2022/11/17 03:50:52;;;;;;;14.80;11.25;;;8.40;99.90;;;;;;4905177;29;20100;-86
2022/11/17 03:53:18;;;;;;;12.65;10.52;;;8.20;99.90;;;;;;4881261;29;20044;-86
2022/11/17 03:56:09;;;;;;;11.70;10.40;;;8.20;99.90;;;;;;4887872;29;20396;-86
2022/11/17 03:58:42;;;;;;;11.85;10.02;;;8.60;99.90;;;;;;4894514;29;20067;-86
2022/11/17 04:01:08;;;;;;;11.57;10.38;;;8.20;99.90;;;;;;4894037;29;20488;-86
2022/11/17 04:03:34;;;;;;;13.32;11.93;;;8.20;99.90;;;;;;4884210;29;20047;-85
2022/11/17 04:06:00;;;;;;;11.68;10.48;;;8.20;99.90;;;;;;4898855;29;20578;-86
2022/11/17 04:08:29;;;;;;;13.18;10.38;;;8.20;99.90;;;;;;4893340;29;20050;-87
2022/11/17 04:16:26;;;;;;;10.18;8.82;;;9.30;99.90;;;;;;4892621;29;20143;-86
2022/11/17 04:18:52;;;;;;;12.52;10.35;;;9.00;99.90;;;;;;4877815;29;20181;-87
2022/11/17 04:21:17;;;;;;;10.73;9.57;;;8.10;99.90;;;;;;4893751;29;20056;-86
2022/11/17 04:23:43;;;;;;;11.15;10.02;;;8.10;99.90;;;;;;4895920;29;20041;-85
2022/11/17 04:28:54;;;;;;;11.82;9.13;;;8.10;99.90;;;;;;4896602;29;20053;-87
2022/11/17 04:31:24;;;;;;;10.73;9.73;;;8.00;99.90;;;;;;4897343;29;20048;-87
2022/11/17 04:34:01;;;;;;;11.45;10.15;;;8.70;99.90;;;;;;4894927;29;20045;-86
2022/11/17 04:36:28;;;;;;;12.82;7.97;;;8.00;99.90;;;;;;4876643;29;20036;-87
2022/11/17 04:38:56;;;;;;;10.00;8.57;;;8.00;99.90;;;;;;4880692;29;20092;-86
2022/11/17 04:44:11;;;;;;;9.50;8.60;;;8.00;99.90;;;;;;4909555;29;20040;-87
2022/11/17 04:46:38;;;;;;;9.48;8.45;;;8.50;99.90;;;;;;4897523;29;20044;-86
2022/11/17 04:49:04;;;;;;;9.80;8.90;;;8.00;99.90;;;;;;4893725;29;20052;-87
2022/11/17 04:51:31;;;;;;;8.60;7.88;;;8.00;99.90;;;;;;4896156;29;20051;-86
2022/11/17 04:53:57;;;;;;;8.43;7.63;;;8.10;99.90;;;;;;4874043;29;20036;-87
2022/11/17 04:56:24;;;;;;;8.35;7.63;;;8.00;99.90;;;;;;4896294;29;20048;-86
2022/11/17 04:58:49;;;;;;;10.45;8.35;;;8.50;99.90;;;;;;4891531;29;20045;-86
2022/11/17 05:01:17;;;;;;;7.82;7.07;;;8.00;99.90;;;;;;4879523;29;20051;-88
2022/11/17 05:04:10;;;;;;;9.90;8.85;;;8.50;99.90;;;;;;4879450;29;20045;-87
2022/11/17 05:06:41;;;;;;;7.93;7.13;;;8.00;99.90;;;;;;4880371;29;20064;-87
2022/11/17 05:09:09;;;;;;;8.88;7.85;;;8.00;99.90;;;;;;4882702;29;20044;-87
2022/11/17 05:14:22;;;;;;;8.75;7.85;;;7.90;99.90;;;;;;4882612;29;20057;-87
2022/11/17 05:17:08;;;;;;;8.10;6.70;;;7.90;99.90;;;;;;4879933;29;20456;-86
2022/11/17 05:19:52;;;;;;;8.15;7.35;;;7.90;99.90;;;;;;4882835;29;20041;-88
2022/11/17 05:25:09;;;;;;;7.55;6.95;;;8.70;99.90;;;;;;4896318;29;20050;-87
2022/11/17 05:27:40;;;;;;;9.80;7.32;;;7.90;99.90;;;;;;4899546;29;20135;-87
2022/11/17 05:30:07;;;;;;;8.02;7.30;;;7.80;99.90;;;;;;4913589;29;20044;-87
2022/11/17 05:32:33;;;;;;;8.57;7.43;;;7.80;99.90;;;;;;4893726;29;20048;-86
2022/11/17 05:34:58;;;;;;;7.65;6.97;;;7.70;99.90;;;;;;4878762;29;20724;-84
2022/11/17 05:37:24;;;;;;;7.15;6.00;;;7.70;99.90;;;;;;4913035;29;20049;-87
2022/11/17 05:39:49;;;;;;;7.03;6.43;;;7.70;99.90;;;;;;4908502;29;20091;-83
2022/11/17 05:42:15;;;;;;;8.63;7.82;;;7.60;99.90;;;;;;4893975;29;20041;-85
2022/11/17 05:44:40;;;;;;;8.18;7.47;;;7.60;99.90;;;;;;4893649;29;20049;-85
2022/11/17 05:47:06;;;;;;;8.63;7.82;;;7.40;99.90;;;;;;4892833;29;20037;-86
2022/11/17 05:49:32;;;;;;;7.28;6.57;;;7.60;99.90;;;;;;4898817;29;20052;-86
2022/11/17 05:51:57;;;;;;;8.70;7.80;;;7.60;99.90;;;;;;4892910;29;20047;-84
2022/11/17 05:54:23;;;;;;;8.85;8.05;;;7.60;99.90;;;;;;4890150;29;20045;-86
2022/11/17 05:56:52;;;;;;;7.25;6.63;;;7.50;99.90;;;;;;4891921;29;20041;-85
2022/11/17 05:59:24;;;;;;;7.88;7.10;;;7.40;99.90;;;;;;4892816;29;20516;-85
2022/11/17 06:02:11;;;;;;;8.90;8.10;;;7.40;99.90;;;;;;4875231;29;20408;-85
2022/11/17 06:04:37;;;;;;;7.95;6.95;;;7.50;99.90;;;;;;4893622;29;20083;-85
2022/11/17 06:07:06;;;;;;;8.50;7.60;;;7.50;99.90;;;;;;4879296;29;20044;-86
2022/11/17 06:09:46;;;;;;;7.72;6.90;;;7.50;99.90;;;;;;4891860;29;20099;-84
2022/11/17 06:12:14;;;;;;;7.05;6.35;;;7.50;99.90;;;;;;4887890;29;20100;-86
2022/11/17 06:14:41;;;;;;;6.68;6.03;;;6.70;99.90;;;;;;4877378;29;20044;-86
2022/11/17 06:17:21;;;;;;;7.53;6.82;;;7.40;99.90;;;;;;4891559;29;20064;-85
2022/11/17 06:19:51;;;;;;;7.30;6.60;;;7.40;99.90;;;;;;4892515;29;20059;-85
2022/11/17 06:22:17;;;;;;;7.68;6.97;;;7.30;99.90;;;;;;4892553;29;20040;-86
2022/11/17 06:24:44;;;;;;;7.88;6.82;;;7.20;99.90;;;;;;4890660;29;20045;-84
2022/11/17 06:27:12;;;;;;;7.28;6.57;;;7.20;99.90;;;;;;4890508;29;20611;-85
2022/11/17 06:29:37;;;;;;;7.18;6.53;;;7.20;99.90;;;;;;4894014;29;20132;-87
2022/11/17 06:32:03;;;;;;;8.07;7.28;;;7.70;99.90;;;;;;4893145;29;20139;-87
2022/11/17 06:34:30;;;;;;;7.50;6.90;;;7.20;99.90;;;;;;4889194;29;20521;-86
2022/11/17 06:36:56;;;;;;;7.93;6.85;;;7.20;99.90;;;;;;4890659;29;20512;-86
2022/11/17 06:39:21;;;;;;;7.07;6.38;;;7.20;99.90;;;;;;4894013;29;20041;-85
2022/11/17 06:41:47;;;;;;;7.40;6.80;;;7.20;99.90;;;;;;4892495;29;20044;-85
2022/11/17 06:44:13;;;;;;;7.95;6.57;;;7.20;99.90;;;;;;4893686;29;20074;-83
2022/11/17 06:46:39;;;;;;;8.05;7.35;;;7.50;99.90;;;;;;4908423;29;20112;-85
2022/11/17 06:57:16;;;;;;;7.82;6.97;;;7.10;99.90;;;;;;4892763;29;20051;-88
2022/11/17 07:00:24;;;;;;;6.32;5.82;;;7.30;99.90;;;;;;4907848;29;20041;-87
2022/11/17 07:07:06;;;;;;;6.35;5.75;;;7.30;99.90;;;;;;4925403;29;20080;-86
2022/11/17 07:28:20;;;;;;;7.32;5.93;;;7.20;99.90;;;;;;4895694;29;20049;-85
2022/11/17 07:30:50;;;;;;;5.82;5.32;;;7.20;99.90;;;;;;4893185;29;20132;-87
2022/11/17 07:34:08;;;;;;;6.00;5.22;;;7.20;99.90;;;;;;4902742;29;20052;-86
2022/11/17 07:37:04;;;;;;;10.70;5.63;;;7.30;99.90;;;;;;4869425;28;20131;-87
2022/11/17 07:40:08;;;;;;;;;;;7.20;99.90;;;;;;4892252;29;20048;-86
2022/11/17 07:46:59;;;;;;;5.78;5.28;;;7.30;99.90;;;;;;4899632;29;20104;-86
2022/11/17 07:49:34;;;;;;;5.82;5.32;;;7.20;99.90;;;;;;4876464;29;20056;-87
2022/11/17 07:52:24;;;;;;;6.88;5.75;;;7.20;99.90;;;;;;4895133;29;20436;-86
2022/11/17 07:55:10;;;;;;;6.07;5.53;;;7.20;99.90;;;;;;4906829;29;20051;-86
2022/11/17 07:58:20;;;;;;;5.60;5.10;;;7.30;99.90;;;;;;4907920;29;20051;-86
2022/11/17 08:12:10;;;;;;;5.63;5.00;;;7.20;99.90;;;;;;4927463;29;20399;-87
2022/11/17 08:14:50;;;;;;;5.68;5.15;;;7.20;99.90;;;;;;4915509;29;20078;-86
2022/11/17 08:17:16;;;;;;;6.10;5.50;;;7.20;99.90;;;;;;4916274;29;20053;-86
2022/11/17 08:19:42;;;;;;;5.60;5.10;;;7.20;99.90;;;;;;4912879;29;20052;-87
2022/11/17 08:22:07;;;;;;;5.82;5.32;;;7.20;99.90;;;;;;4895962;29;20082;-86
2022/11/17 08:24:33;;;;;;;6.47;5.82;;;7.20;99.90;;;;;;4892937;29;20044;-86
2022/11/17 08:26:59;;;;;;;7.75;6.60;;;7.20;99.90;;;;;;4876341;29;20100;-87
2022/11/17 08:29:24;;;;;;;6.82;6.10;;;7.20;99.90;;;;;;4890004;29;20040;-86
2022/11/17 08:31:52;;;;;;;6.28;5.68;;;7.20;99.90;;;;;;4891279;29;20040;-85
2022/11/17 08:34:18;;;;;;;6.80;6.15;;;7.20;99.90;;;;;;4898612;29;20048;-86
2022/11/17 08:36:43;;;;;;;6.32;5.72;;;7.20;99.90;;;;;;4893007;29;20056;-88
2022/11/17 08:39:09;;;;;;;7.88;7.13;;;7.20;99.90;;;;;;4893774;29;20127;-87
2022/11/17 08:41:35;;;;;;;8.50;7.70;;;7.20;99.90;;;;;;4893301;29;20045;-85
2022/11/17 08:44:04;;;;;;;7.20;6.50;;;7.20;99.90;;;;;;4892759;29;20609;-86
2022/11/17 08:46:37;;;;;;;6.10;5.60;;;7.20;99.90;;;;;;4893245;29;20045;-86
2022/11/17 08:49:03;;;;;;;9.52;5.63;;;7.20;99.90;;;;;;4893953;29;20159;-87
2022/11/17 08:51:31;;;;;;;7.00;6.40;;;7.20;99.90;;;;;;4893689;29;20460;-86
2022/11/17 08:53:57;;;;;;;6.60;6.00;;;7.20;99.90;;;;;;4890279;29;20041;-86
2022/11/17 08:56:33;;;;;;;;;;;;;;;;;;;;;
2022/11/17 08:59:01;;;;;;;7.90;7.13;;;7.30;99.90;;;;;;4892251;29;20082;-87
2022/11/17 09:01:26;;;;;;;9.65;6.63;;;7.20;99.90;;;;;;4893220;29;20582;-86
2022/11/17 09:03:52;;;;;;;6.78;6.22;;;7.20;99.90;;;;;;4890129;29;20044;-86
2022/11/17 09:06:18;;;;;;;5.85;5.35;;;8.00;99.90;;;;;;4890449;29;20033;-86
2022/11/17 09:08:45;;;;;;;5.93;5.18;;;7.20;99.90;;;;;;4888975;29;20054;-86
2022/11/17 09:11:11;;;;;;;6.00;5.50;;;7.20;99.90;;;;;;4892695;29;20041;-88
2022/11/17 09:13:37;;;;;;;7.80;6.32;;;7.40;99.90;;;;;;4874681;29;20041;-87
2022/11/17 09:16:05;;;;;;;7.68;7.03;;;7.30;99.90;;;;;;4881809;29;20191;-85
2022/11/17 09:18:32;;;;;;;6.55;5.95;;;7.30;99.90;;;;;;4906428;29;20088;-86
2022/11/17 09:21:03;;;;;;;6.22;5.63;;;7.30;99.90;;;;;;4890803;29;20047;-86
2022/11/17 09:23:30;;;;;;;6.00;5.40;;;7.40;99.90;;;;;;4906520;29;20127;-86
2022/11/17 09:25:56;;;;;;;6.18;5.68;;;7.30;99.90;;;;;;4892001;29;20048;-86
2022/11/17 09:28:25;;;;;;;5.25;4.85;;;7.40;99.90;;;;;;4890584;29;20084;-85
2022/11/17 09:30:52;;;;;;;6.78;5.53;;;7.30;99.90;;;;;;4890598;29;20088;-86
2022/11/17 09:33:18;;;;;;;6.07;5.57;;;7.30;99.90;;;;;;4908698;29;20036;-86
2022/11/17 09:35:44;;;;;;;6.47;5.78;;;7.40;99.90;;;;;;4877858;29;20041;-88
2022/11/17 09:38:10;;;;;;;5.35;4.93;;;7.40;99.90;;;;;;4883371;29;20060;-86
2022/11/17 09:40:39;;;;;;;6.00;5.50;;;7.30;99.90;;;;;;4874917;29;20048;-86
2022/11/17 09:43:27;;;;;;;5.82;5.20;;;8.30;99.90;;;;;;4893731;29;20507;-86
2022/11/17 09:46:04;;;;;;;6.63;5.88;;;8.10;99.90;;;;;;4892118;29;20470;-86
2022/11/17 09:49:04;;;;;;;6.15;5.25;;;7.30;99.90;;;;;;4892449;29;20131;-86
2022/11/17 09:51:30;;;;;;;5.22;4.80;;;7.40;99.90;;;;;;4892028;29;20045;-87
2022/11/17 09:54:19;;;;;;;5.18;4.78;;;7.40;99.90;;;;;;4888671;29;20085;-86
2022/11/17 09:56:53;;;;;;;5.90;5.40;;;7.40;99.90;;;;;;4887787;29;20051;-85
2022/11/17 09:59:20;;;;;;;5.15;4.63;;;7.40;99.90;;;;;;4881823;29;20060;-87
2022/11/17 10:02:14;;;;;;;5.10;4.60;;;7.80;99.90;;;;;;4881966;29;20092;-88
2022/11/17 10:04:47;;;;;;;5.40;4.90;;;7.70;99.90;;;;;;4866305;29;20047;-88
2022/11/17 10:07:42;;;;;;;4.80;4.40;;;7.50;99.90;;;;;;4881758;29;20059;-90
2022/11/17 10:10:32;;;;;;;4.47;4.07;;;6.80;99.90;;;;;;4879644;29;20044;-86
2022/11/17 10:13:11;;;;;;;5.20;4.80;;;7.50;99.90;;;;;;4899823;29;20055;-87
2022/11/17 10:15:58;;;;;;;5.70;4.68;;;8.70;99.90;;;;;;4883921;29;20056;-87
2022/11/17 10:18:47;;;;;;;4.90;4.43;;;7.50;99.90;;;;;;4897405;29;20147;-89
2022/11/17 10:21:13;;;;;;;4.93;4.53;;;7.50;99.90;;;;;;4864590;29;20056;-89
2022/11/17 10:23:49;;;;;;;5.35;4.95;;;7.70;99.90;;;;;;4867247;29;20044;-87
2022/11/17 10:26:18;;;;;;;5.38;4.78;;;7.70;99.90;;;;;;4885216;29;20175;-86
2022/11/17 10:28:54;;;;;;;;;;;;;;;;;;;;;
2022/11/17 10:38:53;;;;;;;4.67;4.27;;;7.60;99.90;;;;;;4888809;29;20095;-86
2022/11/17 10:41:57;;;;;;;4.78;4.43;;;7.60;99.90;;;;;;4882661;29;20044;-84
2022/11/17 11:51:56;;;;;;;3.50;3.20;;;8.10;99.90;;;;;;4888308;29;20508;-87
2022/11/17 11:55:05;;;;;;;3.85;3.25;;;8.10;99.90;;;;;;4879317;29;20055;-87
2022/11/17 12:00:43;;;;;;;3.88;3.58;;;8.00;99.90;;;;;;4887594;29;20044;-87
2022/11/17 12:03:28;;;;;;;3.65;3.42;;;8.70;99.90;;;;;;4886874;29;20052;-87
2022/11/17 12:06:40;;;;;;;3.90;3.60;;;8.10;99.90;;;;;;4889419;29;21078;-87
2022/11/17 12:09:20;;;;;;;5.63;4.18;;;8.20;99.90;;;;;;4875276;29;20104;-87
2022/11/17 12:12:03;;;;;;;4.57;4.22;;;8.50;99.90;;;;;;4905593;29;20399;-86
2022/11/17 12:14:36;;;;;;;9.13;5.75;;;8.20;99.90;;;;;;4887659;29;20045;-86
2022/11/17 12:17:35;;;;;;;5.65;5.15;;;8.60;99.90;;;;;;4886851;29;21615;-87
2022/11/17 12:20:46;;;;;;;5.22;4.75;;;8.30;99.90;;;;;;4895033;29;20513;-86
2022/11/17 12:23:41;;;;;;;4.78;4.28;;;8.30;99.90;;;;;;4889802;29;20056;-87
2022/11/17 12:26:21;;;;;;;5.78;5.25;;;8.30;99.90;;;;;;4873630;29;20527;-86
2022/11/17 12:29:18;;;;;;;4.95;4.63;;;8.90;99.90;;;;;;4889290;29;20049;-86
2022/11/17 12:31:51;;;;;;;6.15;5.57;;;8.50;99.90;;;;;;4886207;29;20065;-87
2022/11/17 12:35:15;;;;;;;6.90;5.57;;;8.60;99.90;;;;;;4871430;29;20083;-87
2022/11/17 12:37:43;;;;;;;5.82;5.25;;;8.70;99.90;;;;;;4884285;29;20055;-86
2022/11/17 12:41:05;;;;;;;6.15;5.63;;;8.80;99.90;;;;;;4877276;29;20530;-86
2022/11/17 12:43:37;;;;;;;8.02;6.10;;;8.80;99.90;;;;;;4887980;29;20040;-86
2022/11/17 12:46:30;;;;;;;8.25;7.07;;;8.90;99.90;;;;;;4874309;29;20052;-86
2022/11/17 12:50:03;;;;;;;7.50;6.82;;;8.90;99.90;;;;;;4866163;29;20187;-87
2022/11/17 12:52:48;;;;;;;8.43;6.18;;;9.00;99.90;;;;;;4886502;29;20164;-87
2022/11/17 12:55:24;;;;;;;;;;;9.10;99.90;;;;;;4903662;29;20127;-87
2022/11/17 12:58:05;;;;;;;10.60;6.80;;;9.10;99.90;;;;;;4888356;29;19967;-87
2022/11/17 13:00:43;;;;;;;7.45;6.65;;;9.10;99.90;;;;;;4875079;29;20452;-87
2022/11/17 13:07:33;;;;;;;5.95;5.35;;;9.20;99.90;;;;;;4891896;29;20042;-86
2022/11/17 13:21:37;;;;;;;6.63;5.53;;;9.50;99.90;;;;;;4867963;29;20096;-87
2022/11/17 13:24:30;;;;;;;9.10;5.18;;;9.60;99.90;;;;;;4865552;29;20063;-84
2022/11/17 13:27:01;;;;;;;10.20;4.82;;;9.60;99.90;;;;;;4850589;29;20174;-83
2022/11/17 13:29:39;;;;;;;5.90;4.80;;;9.30;99.90;;;;;;4895625;29;20336;-83
2022/11/17 13:32:19;;;;;;;10.85;4.18;;;9.60;99.90;;;;;;4905391;29;20056;-82
2022/11/17 13:35:01;;;;;;;6.38;4.22;;;9.70;99.90;;;;;;4888064;29;20078;-87
2022/11/17 13:37:30;;;;;;;6.57;3.67;;;9.70;99.90;;;;;;4891135;29;20451;-82
2022/11/17 13:40:20;;;;;;;7.20;3.75;;;9.70;99.90;;;;;;4893086;29;20435;-83
2022/11/17 13:43:20;;;;;;;8.25;3.72;;;9.70;99.90;;;;;;4896705;29;20104;-86
2022/11/17 14:00:19;;;;;;;5.85;2.35;;;10.00;99.90;;;;;;4846335;29;20519;-86
2022/11/17 14:03:30;;;;;;;5.38;2.67;;;10.00;99.90;;;;;;4831971;29;20140;-85
2022/11/17 14:06:47;;;;;;;4.13;2.22;;;10.10;99.90;;;;;;4862050;29;20055;-86
2022/11/17 14:10:15;;;;;;;9.63;3.55;;;10.00;99.90;;;;;;4903945;29;20103;-86
2022/11/17 14:12:40;;;;;;;10.95;2.35;;;10.00;99.90;;;;;;4870247;29;20419;-86
2022/11/17 14:15:41;;;;;;;8.13;3.03;;;10.10;99.90;;;;;;4871373;29;20048;-86
2022/11/17 14:18:30;;;;;;;12.38;4.55;;;10.10;99.90;;;;;;4889684;29;20059;-86
2022/11/17 14:21:33;;;;;;;8.57;6.15;;;10.00;99.90;;;;;;4875864;29;20128;-86
2022/11/17 14:24:19;;;;;;;9.45;6.50;;;10.00;99.90;;;;;;4886400;29;20055;-86
2022/11/17 14:26:51;;;;;;;10.40;7.68;;;10.00;99.90;;;;;;4872211;29;20064;-87
2022/11/17 14:29:36;;;;;;;11.93;7.65;;;9.90;99.90;;;;;;4881003;29;20160;-87
2022/11/17 14:33:10;;;;;;;8.88;7.78;;;9.90;99.90;;;;;;4885622;29;20119;-86
2022/11/17 14:36:34;;;;;;;9.60;8.45;;;9.80;99.90;;;;;;4863877;29;20048;-87
2022/11/17 15:02:00;;;;;;;13.40;10.82;;;9.70;99.90;;;;;;4832809;29;20242;-87
2022/11/17 15:05:29;;;;;;;12.77;10.68;;;9.50;99.90;;;;;;4827221;29;20139;-86
2022/11/17 15:08:24;;;;;;;13.90;10.43;;;9.80;99.90;;;;;;4817273;29;20738;-86
2022/11/17 15:14:40;;;;;;;12.57;11.23;;;9.60;99.90;;;;;;4843264;29;20053;-84
2022/11/17 15:17:05;;;;;;;10.05;9.05;;;9.60;99.90;;;;;;4873113;29;20585;-84
2022/11/17 15:20:11;;;;;;;11.20;10.10;;;9.50;99.90;;;;;;4869237;29;20143;-86
2022/11/17 15:22:43;;;;;;;9.50;8.60;;;9.60;99.90;;;;;;4900974;29;20048;-83
2022/11/17 15:25:08;;;;;;;10.90;9.60;;;9.50;99.90;;;;;;4881433;29;21803;-85
2022/11/17 15:27:35;;;;;;;10.57;8.50;;;9.90;99.90;;;;;;4883815;29;20048;-85
2022/11/17 15:30:06;;;;;;;12.75;7.50;;;9.50;99.90;;;;;;4886306;29;20059;-83
2022/11/17 15:32:31;;;;;;;8.05;6.43;;;9.60;99.90;;;;;;4885538;29;20131;-84
2022/11/17 15:35:02;;;;;;;7.88;5.55;;;9.60;99.90;;;;;;4869808;29;20795;-82
2022/11/17 15:37:28;;;;;;;6.63;3.10;;;9.60;99.90;;;;;;4901715;29;20043;-83
2022/11/17 15:39:54;;;;;;;5.45;2.30;;;9.60;99.90;;;;;;4885788;29;20044;-83
2022/11/17 15:42:19;;;;;;;5.47;2.00;;;9.70;99.90;;;;;;4872418;29;20052;-83
2022/11/17 15:44:45;;;;;;;8.15;4.13;;;9.70;99.90;;;;;;4900969;29;20044;-83
2022/11/17 15:47:13;;;;;;;5.32;3.70;;;9.70;99.90;;;;;;4873236;29;20037;-83
2022/11/17 15:49:39;;;;;;;10.20;5.47;;;9.70;99.90;;;;;;4871387;29;20171;-84
2022/11/17 15:52:04;;;;;;;7.10;6.40;;;9.70;99.90;;;;;;4870128;29;20044;-83
2022/11/17 15:54:30;;;;;;;9.02;7.95;;;9.70;99.90;;;;;;4870781;29;20870;-83
2022/11/17 15:56:56;;;;;;;9.40;6.88;;;9.60;99.90;;;;;;4899283;29;20068;-83
2022/11/17 15:59:21;;;;;;;10.18;7.68;;;9.60;99.90;;;;;;4890937;29;20048;-83
2022/11/17 16:01:47;;;;;;;7.78;6.60;;;9.50;99.90;;;;;;4871917;29;20045;-83
2022/11/17 16:04:15;;;;;;;8.15;5.38;;;9.60;99.90;;;;;;4872837;29;20059;-83
2022/11/17 16:06:45;;;;;;;7.82;7.03;;;9.60;99.90;;;;;;4871075;29;20044;-83
2022/11/17 16:09:11;;;;;;;8.88;8.13;;;9.60;99.90;;;;;;4871004;29;20124;-82
2022/11/17 16:11:38;;;;;;;8.68;7.57;;;9.60;99.90;;;;;;4884375;29;20051;-84
2022/11/17 16:14:25;;;;;;;10.63;7.97;;;9.50;99.90;;;;;;4868168;29;20040;-85
2022/11/17 16:17:00;;;;;;;9.85;7.88;;;9.50;99.90;;;;;;4872344;29;20071;-85
2022/11/17 16:19:35;;;;;;;9.20;8.40;;;9.60;99.90;;;;;;4872633;29;20048;-84
2022/11/17 16:22:07;;;;;;;10.35;9.40;;;9.60;99.90;;;;;;4884403;29;20336;-85
2022/11/17 16:24:33;;;;;;;11.45;10.35;;;9.60;99.90;;;;;;4901586;29;20215;-87
2022/11/17 16:31:35;;;;;;;12.57;11.32;;;9.60;99.90;;;;;;4907122;29;20079;-87
2022/11/17 16:34:56;;;;;;;13.88;12.48;;;9.50;99.90;;;;;;4894024;29;20056;-87
2022/11/17 16:37:54;;;;;;;13.25;11.52;;;9.50;99.90;;;;;;4919909;29;20047;-86
2022/11/17 16:40:20;;;;;;;11.20;10.02;;;8.90;99.90;;;;;;4909736;29;20063;-85
2022/11/17 16:42:45;;;;;;;11.43;10.43;;;9.50;99.90;;;;;;4894361;29;20127;-85
2022/11/17 16:45:11;;;;;;;12.02;10.80;;;9.40;99.90;;;;;;4895002;29;20127;-86
2022/11/17 16:47:37;;;;;;;11.93;10.77;;;9.40;99.90;;;;;;4877639;29;20045;-85
2022/11/17 16:50:06;;;;;;;11.10;10.20;;;9.40;99.90;;;;;;4871397;29;20057;-84
2022/11/17 16:52:40;;;;;;;12.07;9.90;;;9.40;99.90;;;;;;4874755;29;20036;-85
2022/11/17 16:55:07;;;;;;;10.93;9.55;;;9.40;99.90;;;;;;4890265;29;20044;-85
2022/11/17 16:57:35;;;;;;;12.32;9.23;;;9.30;99.90;;;;;;4893099;29;20120;-84
2022/11/17 17:00:38;;;;;;;10.00;8.07;;;9.40;99.90;;;;;;4874167;29;20048;-87
2022/11/17 17:03:06;;;;;;;12.18;8.02;;;9.30;99.90;;;;;;4875769;29;20741;-85